Telegraph Creek, Canada
Current Conditions -  °F | °C
As of 8:00 AM on Wednesday 22 Oct 2014 (Local Time) from CYDL Reporting Station
Overcast Overcast  
Wind Chill: 34°   Ceiling: 11000
Heat Index: 34°   Visibility: 9mi
Dew Point: 34°   Wind: 3mph
Humidity: 100%   Direction: 40°NE
Pressure: 29.31"   Gusts: NA
Location:  57.9°N, 131.15°W
Report Text: CYDL 221500Z AUTO 04003KT 010V090 9SM OVC110 01/01 A2931 RMK SLP943
Loading
Personal Weather Stations






























Interactive Weather Map New forecast layout! Learn more

10-Day Weather Forecast

Advertisements
Track Severe Weather on mobile